createdAt,value
2022-08-25T00:03:24.609Z,1145.74949
2022-08-25T00:18:26.812Z,1145.74949
2022-08-25T00:33:29.159Z,1099.4566
2022-08-25T00:48:31.408Z,1165.56887
2022-08-25T01:03:35.820Z,1323.66749
2022-08-25T01:18:38.248Z,1367.15027
2022-08-25T01:33:40.415Z,1525.60696
2022-08-25T01:48:42.919Z,1321.19565
2022-08-25T02:03:45.148Z,1219.82809
2022-08-25T02:18:48.698Z,1217.72856
2022-08-25T02:33:50.905Z,1293.41916
2022-08-25T02:48:53.181Z,1395.46402
2022-08-25T03:03:55.483Z,1413.58693
2022-08-25T03:18:57.894Z,1385.89669
2022-08-25T03:34:00.153Z,1264.5224
2022-08-25T03:49:02.463Z,1281.70341
2022-08-25T04:04:04.709Z,1246.69654
2022-08-25T04:19:06.958Z,1172.32859
2022-08-25T04:34:29.503Z,1071.9702
2022-08-25T04:49:33.658Z,1033.60167
2022-08-25T05:04:36.083Z,1008.5536
2022-08-25T05:19:38.411Z,1039.67721
2022-08-25T05:34:40.416Z,929.69826
2022-08-25T05:49:42.875Z,900.12772
2022-08-25T06:04:45.140Z,835.79494
2022-08-25T06:19:47.320Z,801.24625
2022-08-25T06:34:49.653Z,726.40668
2022-08-25T06:49:51.750Z,700.48931
2022-08-25T07:04:53.944Z,692.25634
2022-08-25T07:19:57.514Z,671.85716
2022-08-25T07:35:00.117Z,626.59022
2022-08-25T07:50:03.786Z,573.231
2022-08-25T08:05:08.428Z,573.69628
2022-08-25T08:20:12.024Z,567.70589
2022-08-25T08:35:14.287Z,572.30269
2022-08-25T08:50:20.331Z,544.52531
2022-08-25T09:05:25.505Z,557.84833
2022-08-25T09:20:27.592Z,566.34121
2022-08-25T09:35:31.602Z,581.24491
2022-08-25T09:50:35.086Z,571.37739
2022-08-25T10:05:37.354Z,547.47781
2022-08-25T10:20:44.699Z,545.78676
2022-08-25T10:35:47.413Z,539.94947
2022-08-25T10:50:49.615Z,564.53182
2022-08-25T11:05:51.824Z,585.09421
2022-08-25T11:20:54.058Z,592.4508
2022-08-25T11:35:56.256Z,567.70589
2022-08-25T11:50:59.005Z,570.91585
2022-08-25T12:06:01.405Z,582.20248
2022-08-25T12:21:03.755Z,599.99473
2022-08-25T12:36:05.934Z,615.67403
2022-08-25T12:51:08.111Z,618.90874
2022-08-25T13:06:10.337Z,586.06452
2022-08-25T13:21:14.223Z,604.09726
2022-08-25T13:36:16.420Z,602.55225
2022-08-25T13:51:18.620Z,604.61402
2022-08-25T14:06:23.600Z,576.50393
2022-08-25T14:21:26.075Z,584.12712
2022-08-25T14:36:28.306Z,596.95422
2022-08-25T14:51:31.711Z,592.94782
2022-08-25T15:06:34.041Z,557.84833
2022-08-25T15:21:36.423Z,550.4625
2022-08-25T15:36:38.628Z,533.83223
2022-08-25T15:51:40.906Z,539.5373
2022-08-25T16:06:43.117Z,548.32727
2022-08-25T16:21:47.420Z,591.45925
2022-08-25T16:36:51.901Z,614.60329
2022-08-25T16:51:57.559Z,630.50292
2022-08-25T17:07:00.462Z,661.79189
2022-08-25T17:22:04.213Z,701.18424
2022-08-25T17:37:08.850Z,691.57898
2022-08-25T17:52:11.209Z,693.61503
2022-08-25T18:07:13.400Z,709.63224
2022-08-25T18:22:15.597Z,780.0446
2022-08-25T18:37:18.114Z,823.15349
2022-08-25T18:52:20.330Z,841.76135
2022-08-25T19:07:24.235Z,871.30592
2022-08-25T19:22:40.723Z,866.50387
2022-08-25T19:37:43.831Z,861.22996
2022-08-25T19:52:46.033Z,802.60969
2022-08-25T20:07:52.189Z,727.15401
2022-08-25T20:22:54.542Z,712.49366
2022-08-25T20:37:57.059Z,767.35408
2022-08-25T20:52:59.415Z,705.38295
2022-08-25T21:08:03.251Z,682.23333
2022-08-25T21:23:05.694Z,720.48288
2022-08-25T21:38:08.408Z,759.52814
2022-08-25T21:53:11.449Z,878.33693
2022-08-25T22:08:13.815Z,984.00606
2022-08-25T22:23:20.149Z,1031.34161
2022-08-25T22:38:22.694Z,1031.34161
2022-08-25T22:53:25.266Z,1026.10637
2022-08-25T23:08:40.708Z,1096.05008
2022-08-25T23:23:43.440Z,1086.79006
2022-08-25T23:38:45.934Z,1233.65351
2022-08-25T23:53:54.141Z,1334.90617
